createdAt,value
2022-12-26T00:02:06.933Z,5.43
2022-12-26T00:04:48.538Z,5.10
2022-12-26T00:07:19.757Z,6.13
2022-12-26T00:09:47.038Z,5.77
2022-12-26T00:12:14.295Z,5.30
2022-12-26T00:14:41.610Z,5.33
2022-12-26T00:17:08.631Z,6.17
2022-12-26T00:19:35.601Z,5.37
2022-12-26T00:22:02.524Z,4.60
2022-12-26T00:24:29.448Z,5.20
2022-12-26T00:26:56.373Z,5.63
2022-12-26T00:29:23.279Z,5.27
2022-12-26T00:31:50.249Z,6.27
2022-12-26T00:34:17.396Z,4.47
2022-12-26T00:36:44.303Z,4.07
2022-12-26T00:39:11.875Z,4.47
2022-12-26T00:41:38.939Z,5.00
2022-12-26T00:44:06.195Z,5.33
2022-12-26T00:46:33.192Z,4.70
2022-12-26T00:49:00.427Z,4.33
2022-12-26T00:51:27.553Z,4.20
2022-12-26T00:53:54.503Z,3.80
2022-12-26T00:56:21.531Z,4.20
2022-12-26T00:58:48.556Z,4.43
2022-12-26T01:01:22.532Z,3.93
2022-12-26T01:03:51.296Z,4.70
2022-12-26T01:06:18.522Z,4.80
2022-12-26T01:08:45.732Z,4.30
2022-12-26T01:11:15.721Z,3.73
2022-12-26T01:13:43.250Z,4.00
2022-12-26T01:16:10.367Z,4.10
2022-12-26T01:18:37.440Z,6.47
2022-12-26T01:21:10.651Z,4.53
2022-12-26T01:23:37.598Z,4.70
2022-12-26T01:26:18.229Z,4.40
2022-12-26T01:28:51.228Z,4.30
2022-12-26T01:31:19.895Z,4.10
2022-12-26T01:33:47.308Z,4.47
2022-12-26T01:36:15.946Z,4.47
2022-12-26T01:38:42.846Z,3.67
2022-12-26T01:41:22.128Z,4.30
2022-12-26T01:43:53.625Z,3.90
2022-12-26T01:46:27.663Z,4.10
2022-12-26T01:49:01.101Z,4.30
2022-12-26T01:51:32.783Z,3.93
2022-12-26T01:54:38.361Z,4.10
2022-12-26T01:56:49.965Z,3.07
2022-12-26T01:59:27.135Z,3.90
2022-12-26T02:01:55.681Z,4.10
2022-12-26T02:04:53.080Z,4.63
2022-12-26T02:07:20.559Z,4.10
2022-12-26T02:09:47.629Z,4.30
2022-12-26T02:12:33.730Z,4.43
2022-12-26T02:15:12.863Z,4.03
2022-12-26T02:17:40.734Z,4.27
2022-12-26T02:20:37.127Z,4.03
2022-12-26T02:23:31.072Z,3.87
2022-12-26T02:26:00.630Z,4.23
2022-12-26T02:29:21.664Z,4.23
2022-12-26T02:32:12.339Z,4.03
2022-12-26T02:34:54.310Z,4.20
2022-12-26T02:37:42.668Z,4.27
2022-12-26T02:40:50.236Z,4.43
2022-12-26T02:43:47.136Z,4.27
2022-12-26T02:46:52.038Z,3.67
2022-12-26T02:50:16.747Z,4.30
2022-12-26T02:53:15.094Z,4.20
2022-12-26T02:56:05.661Z,3.93
2022-12-26T02:59:53.969Z,4.13
2022-12-26T03:03:02.024Z,3.63
2022-12-26T03:05:57.117Z,4.10
2022-12-26T03:09:10.976Z,3.83
2022-12-26T03:11:59.974Z,4.03
2022-12-26T03:14:33.924Z,4.30
2022-12-26T03:17:22.320Z,3.93
2022-12-26T03:20:13.171Z,4.20
2022-12-26T03:22:56.889Z,3.80
2022-12-26T03:25:54.340Z,3.73
2022-12-26T03:28:22.700Z,4.27
2022-12-26T03:30:49.836Z,4.00
2022-12-26T03:33:41.138Z,3.73
2022-12-26T03:36:14.017Z,3.80
2022-12-26T03:39:17.080Z,3.97
2022-12-26T03:42:28.245Z,3.37
2022-12-26T03:45:27.523Z,4.23
2022-12-26T03:48:20.246Z,5.20
2022-12-26T03:51:17.273Z,4.80
2022-12-26T03:54:16.690Z,3.77
2022-12-26T03:57:10.822Z,5.47
2022-12-26T04:00:34.053Z,4.60
2022-12-26T04:03:27.753Z,3.80
2022-12-26T04:06:15.492Z,3.70
2022-12-26T04:09:16.708Z,4.00
2022-12-26T04:12:04.207Z,3.73
2022-12-26T04:15:04.671Z,4.00
2022-12-26T04:18:05.225Z,3.50
2022-12-26T04:20:52.713Z,4.17
2022-12-26T04:23:46.540Z,3.70
2022-12-26T04:26:48.934Z,3.37
2022-12-26T04:29:34.848Z,3.50
2022-12-26T04:32:32.519Z,3.87
2022-12-26T04:35:35.716Z,3.10
2022-12-26T04:38:23.428Z,3.57
2022-12-26T04:41:16.871Z,3.30
2022-12-26T04:44:03.885Z,3.77
2022-12-26T04:46:32.458Z,3.30
2022-12-26T04:49:22.473Z,3.80
2022-12-26T04:51:50.004Z,3.87
2022-12-26T04:54:17.796Z,3.83
2022-12-26T04:56:44.848Z,3.40
2022-12-26T04:59:11.863Z,3.10
2022-12-26T05:01:57.230Z,3.33
2022-12-26T05:04:42.773Z,4.00
2022-12-26T05:07:42.115Z,3.40
2022-12-26T05:10:18.390Z,3.37
2022-12-26T05:12:45.362Z,3.77
2022-12-26T05:15:13.197Z,3.10
2022-12-26T05:17:58.771Z,3.20
2022-12-26T05:20:44.200Z,2.93
2022-12-26T05:23:45.597Z,3.30
2022-12-26T05:26:38.890Z,3.50
2022-12-26T05:29:06.083Z,3.33
2022-12-26T05:31:36.671Z,2.40
2022-12-26T05:34:17.568Z,3.50
2022-12-26T05:36:49.313Z,3.30
2022-12-26T05:39:16.857Z,3.40
2022-12-26T05:41:43.898Z,3.53
2022-12-26T05:44:11.476Z,3.97
2022-12-26T05:46:39.314Z,3.20
2022-12-26T05:49:07.265Z,3.40
2022-12-26T06:03:37.683Z,2.80
2022-12-26T06:07:16.654Z,2.80
2022-12-26T06:15:05.926Z,2.90
2022-12-26T06:25:28.395Z,2.63
2022-12-26T06:31:53.991Z,2.60
2022-12-26T06:34:40.012Z,2.67
2022-12-26T06:37:52.432Z,2.70
2022-12-26T06:45:20.718Z,3.10
2022-12-26T06:49:04.676Z,2.80
2022-12-26T06:55:22.753Z,2.63
2022-12-26T06:58:34.273Z,2.53
2022-12-26T07:05:28.063Z,3.10
2022-12-26T07:08:10.986Z,2.97
2022-12-26T07:11:28.665Z,2.37
2022-12-26T07:14:14.065Z,2.23
2022-12-26T07:17:46.922Z,2.40
2022-12-26T07:21:00.998Z,2.40
2022-12-26T07:24:22.543Z,2.80
2022-12-26T07:31:02.664Z,2.80
2022-12-26T07:33:53.039Z,4.37
2022-12-26T07:36:21.143Z,2.97
2022-12-26T07:38:48.325Z,2.70
2022-12-26T07:41:33.667Z,2.97
2022-12-26T07:44:00.812Z,3.27
2022-12-26T07:46:27.864Z,2.80
2022-12-26T07:48:54.836Z,2.90
2022-12-26T07:51:21.880Z,2.50
2022-12-26T07:53:48.991Z,3.47
2022-12-26T07:56:16.363Z,2.97
2022-12-26T07:58:43.371Z,2.70
2022-12-26T08:01:10.376Z,3.03
2022-12-26T08:03:38.551Z,3.53
2022-12-26T08:06:05.937Z,3.37
2022-12-26T08:08:32.826Z,3.00
2022-12-26T08:11:05.625Z,3.47
2022-12-26T08:13:33.683Z,2.37
2022-12-26T08:16:05.819Z,2.40
2022-12-26T08:18:32.940Z,3.10
2022-12-26T08:21:00.126Z,2.80
2022-12-26T08:23:28.468Z,2.90
2022-12-26T08:25:55.348Z,2.63
2022-12-26T08:28:22.942Z,2.57
2022-12-26T08:30:50.517Z,2.70
2022-12-26T08:33:17.514Z,3.00
2022-12-26T08:35:45.007Z,2.80
2022-12-26T08:38:11.881Z,1.80
2022-12-26T08:40:43.536Z,2.00
2022-12-26T08:43:33.394Z,2.33
2022-12-26T08:46:06.217Z,1.77
2022-12-26T08:48:34.366Z,6.50
2022-12-26T08:51:06.127Z,2.33
2022-12-26T08:53:35.819Z,2.50
2022-12-26T08:56:05.295Z,2.67
2022-12-26T08:58:33.298Z,2.97
2022-12-26T09:01:15.850Z,2.30
2022-12-26T09:03:44.149Z,2.23
2022-12-26T09:06:14.576Z,2.70
2022-12-26T09:08:42.783Z,2.20
2022-12-26T09:11:14.791Z,2.23
2022-12-26T09:13:42.891Z,2.73
2022-12-26T09:16:20.529Z,2.77
2022-12-26T09:18:49.496Z,3.10
2022-12-26T09:21:16.846Z,2.93
2022-12-26T09:23:43.956Z,3.50
2022-12-26T09:26:18.790Z,2.87
2022-12-26T09:28:47.246Z,3.77
2022-12-26T09:31:34.879Z,3.17
2022-12-26T09:34:06.621Z,2.57
2022-12-26T09:36:39.711Z,3.10
2022-12-26T09:39:07.993Z,2.43
2022-12-26T09:41:56.301Z,3.10
2022-12-26T09:44:34.627Z,3.87
2022-12-26T09:47:10.686Z,4.47
2022-12-26T09:49:56.989Z,3.93
2022-12-26T09:52:41.958Z,3.50
2022-12-26T09:55:38.738Z,2.83
2022-12-26T09:58:26.754Z,2.73
2022-12-26T10:01:02.577Z,2.47
2022-12-26T10:03:30.854Z,2.30
2022-12-26T10:06:41.763Z,2.80
2022-12-26T10:09:17.350Z,2.83
2022-12-26T10:12:03.860Z,2.80
2022-12-26T10:15:19.414Z,2.47
2022-12-26T10:18:16.960Z,2.30
2022-12-26T10:21:28.086Z,2.10
2022-12-26T10:24:15.870Z,2.90
2022-12-26T10:26:51.400Z,2.53
2022-12-26T10:29:27.947Z,2.20
2022-12-26T10:32:03.104Z,2.20
2022-12-26T10:34:45.539Z,3.10
2022-12-26T10:37:38.071Z,2.77
2022-12-26T10:40:39.718Z,2.10
2022-12-26T10:43:31.824Z,2.40
2022-12-26T10:46:20.277Z,1.90
2022-12-26T10:48:48.286Z,2.20
2022-12-26T10:51:16.141Z,1.90
2022-12-26T10:53:52.966Z,2.57
2022-12-26T10:56:21.890Z,1.70
2022-12-26T10:59:03.825Z,2.47
2022-12-26T11:01:35.523Z,2.60
2022-12-26T11:04:06.243Z,2.30
2022-12-26T11:06:38.337Z,3.30
2022-12-26T11:09:06.831Z,6.10
2022-12-26T11:11:46.003Z,4.60
2022-12-26T11:14:38.314Z,2.73
2022-12-26T11:17:33.621Z,2.00
2022-12-26T11:20:15.052Z,1.83
2022-12-26T11:22:46.521Z,2.03
2022-12-26T11:25:18.193Z,2.40
2022-12-26T11:27:51.416Z,1.60
2022-12-26T11:30:24.674Z,2.10
2022-12-26T11:33:14.780Z,2.80
2022-12-26T11:36:21.255Z,1.90
2022-12-26T11:39:03.349Z,2.23
2022-12-26T11:41:32.831Z,2.33
2022-12-26T11:44:04.819Z,2.17
2022-12-26T11:46:38.755Z,2.30
2022-12-26T11:49:06.713Z,2.10
2022-12-26T11:51:47.104Z,2.17
2022-12-26T11:54:50.742Z,2.10
2022-12-26T11:57:18.992Z,2.40
2022-12-26T11:59:47.316Z,2.23
2022-12-26T12:02:27.013Z,2.10
2022-12-26T12:05:12.806Z,2.70
2022-12-26T12:07:45.363Z,2.00
2022-12-26T12:10:47.761Z,2.17
2022-12-26T12:13:41.891Z,2.33
2022-12-26T12:16:36.396Z,2.43
2022-12-26T12:19:25.255Z,2.40
2022-12-26T12:22:04.028Z,2.30
2022-12-26T12:25:08.742Z,2.27
2022-12-26T12:28:07.889Z,2.60
2022-12-26T12:30:45.693Z,2.57
2022-12-26T12:33:38.506Z,2.67
2022-12-26T12:36:56.894Z,2.50
2022-12-26T12:39:44.559Z,4.73
2022-12-26T12:42:31.204Z,8.00
2022-12-26T12:45:30.109Z,2.93
2022-12-26T12:48:23.239Z,2.30
2022-12-26T12:51:03.632Z,2.33
2022-12-26T12:53:36.390Z,2.77
2022-12-26T12:56:44.684Z,2.33
2022-12-26T12:59:14.384Z,2.40
2022-12-26T13:01:48.838Z,2.70
2022-12-26T13:04:24.618Z,2.47
2022-12-26T13:07:00.247Z,2.70
2022-12-26T13:09:35.794Z,2.67
2022-12-26T13:12:07.334Z,2.50
2022-12-26T13:14:47.143Z,2.80
2022-12-26T13:17:50.356Z,2.10
2022-12-26T13:20:37.273Z,3.00
2022-12-26T13:23:37.723Z,2.90
2022-12-26T13:26:18.444Z,2.57
2022-12-26T13:29:20.327Z,2.70
2022-12-26T13:31:47.606Z,2.10
2022-12-26T13:34:20.256Z,3.07
2022-12-26T13:36:49.103Z,3.20
2022-12-26T13:39:32.249Z,2.50
2022-12-26T13:42:27.262Z,2.67
2022-12-26T13:44:54.628Z,3.10
2022-12-26T13:47:39.321Z,6.10
2022-12-26T13:50:57.053Z,8.00
2022-12-26T13:53:30.517Z,2.93
2022-12-26T13:56:04.951Z,2.67
2022-12-26T13:59:17.167Z,2.83
2022-12-26T14:02:19.983Z,2.70
2022-12-26T14:05:22.989Z,2.97
2022-12-26T14:08:06.551Z,3.53
2022-12-26T14:10:54.409Z,2.90
2022-12-26T14:13:49.137Z,2.97
2022-12-26T14:16:58.288Z,3.30
2022-12-26T14:19:51.094Z,3.20
2022-12-26T14:22:39.235Z,3.10
2022-12-26T14:25:28.759Z,3.20
2022-12-26T14:28:38.360Z,3.90
2022-12-26T14:31:49.430Z,3.23
2022-12-26T14:34:34.588Z,3.70
2022-12-26T14:37:26.435Z,3.10
2022-12-26T14:40:41.154Z,3.20
2022-12-26T14:43:58.488Z,2.93
2022-12-26T14:46:33.267Z,2.83
2022-12-26T14:49:18.316Z,3.17
2022-12-26T14:51:45.769Z,3.23
2022-12-26T14:54:22.433Z,2.93
2022-12-26T14:56:53.144Z,2.80
2022-12-26T14:59:33.217Z,2.80
2022-12-26T15:02:18.058Z,2.50
2022-12-26T15:05:04.485Z,3.70
2022-12-26T15:08:13.373Z,2.50
2022-12-26T15:11:08.115Z,2.70
2022-12-26T15:14:02.695Z,2.43
2022-12-26T15:16:45.984Z,3.07
2022-12-26T15:19:40.351Z,2.73
2022-12-26T15:23:02.371Z,2.83
2022-12-26T15:26:26.802Z,3.00
2022-12-26T15:29:11.236Z,3.27
2022-12-26T15:32:14.955Z,2.63
2022-12-26T15:34:51.659Z,3.20
2022-12-26T15:37:32.560Z,3.10
2022-12-26T15:40:18.461Z,3.43
2022-12-26T15:43:26.706Z,3.20
2022-12-26T15:46:11.223Z,3.43
2022-12-26T15:49:19.146Z,3.30
2022-12-26T15:52:51.615Z,3.70
2022-12-26T15:55:56.245Z,3.30
2022-12-26T15:59:09.152Z,6.13
2022-12-26T16:01:42.755Z,3.00
2022-12-26T16:04:39.999Z,3.00
2022-12-26T16:07:32.608Z,3.60
2022-12-26T16:09:59.889Z,2.90
2022-12-26T16:12:35.791Z,3.10
2022-12-26T16:15:11.457Z,2.83
2022-12-26T16:17:40.669Z,3.00
2022-12-26T16:20:43.138Z,2.60
2022-12-26T16:23:19.251Z,2.60
2022-12-26T16:25:56.705Z,4.10
2022-12-26T16:28:34.966Z,2.47
2022-12-26T16:31:02.387Z,2.50
2022-12-26T16:33:43.994Z,2.60
2022-12-26T16:36:24.157Z,2.80
2022-12-26T16:38:52.838Z,2.73
2022-12-26T16:41:29.594Z,2.80
2022-12-26T16:44:14.150Z,2.60
2022-12-26T16:46:41.434Z,2.57
2022-12-26T16:49:10.941Z,2.17
2022-12-26T16:51:44.117Z,3.80
2022-12-26T16:54:20.027Z,2.13
2022-12-26T16:57:02.271Z,1.70
2022-12-26T16:59:44.738Z,4.27
2022-12-26T17:02:34.618Z,2.30
2022-12-26T17:05:18.545Z,1.90
2022-12-26T17:07:48.835Z,1.27
2022-12-26T17:10:36.436Z,1.80
2022-12-26T17:13:09.692Z,1.87
2022-12-26T17:15:46.823Z,1.60
2022-12-26T17:18:46.617Z,1.60
2022-12-26T17:21:25.426Z,1.40
2022-12-26T17:24:25.426Z,1.13
2022-12-26T17:27:16.614Z,1.00
2022-12-26T17:29:50.752Z,1.13
2022-12-26T17:32:50.719Z,1.20
2022-12-26T17:35:26.140Z,1.23
2022-12-26T17:38:01.145Z,0.90
2022-12-26T17:40:33.812Z,1.63
2022-12-26T17:43:12.575Z,1.60
2022-12-26T17:45:46.550Z,1.30
2022-12-26T17:48:13.984Z,1.23
2022-12-26T17:50:45.906Z,1.30
2022-12-26T17:53:29.533Z,1.23
2022-12-26T17:56:00.702Z,1.10
2022-12-26T17:58:28.943Z,1.60
2022-12-26T18:00:56.579Z,1.60
2022-12-26T18:03:23.652Z,1.50
2022-12-26T18:05:50.876Z,1.40
2022-12-26T18:08:32.921Z,1.97
2022-12-26T18:11:02.184Z,1.30
2022-12-26T18:13:29.561Z,1.70
2022-12-26T18:15:57.825Z,2.50
2022-12-26T18:18:30.990Z,2.87
2022-12-26T18:20:57.945Z,1.20
2022-12-26T18:23:24.896Z,2.20
2022-12-26T18:25:54.674Z,1.50
2022-12-26T18:28:21.713Z,1.27
2022-12-26T18:30:48.786Z,1.20
2022-12-26T18:33:15.780Z,1.50
2022-12-26T18:35:44.360Z,1.10
2022-12-26T18:38:19.025Z,1.50
2022-12-26T18:40:50.422Z,1.70
2022-12-26T18:43:17.442Z,1.33
2022-12-26T18:45:44.742Z,1.60
2022-12-26T18:48:16.798Z,1.20
2022-12-26T18:50:44.189Z,1.30
2022-12-26T18:53:12.294Z,1.83
2022-12-26T18:55:40.359Z,1.37
2022-12-26T18:58:07.661Z,1.67
2022-12-26T19:00:36.026Z,1.30
2022-12-26T19:03:03.155Z,1.57
2022-12-26T19:05:33.812Z,1.13
2022-12-26T19:08:02.415Z,1.23
2022-12-26T19:10:33.620Z,1.13
2022-12-26T19:13:05.710Z,1.33
2022-12-26T19:15:35.077Z,1.17
2022-12-26T19:18:03.489Z,1.17
2022-12-26T19:20:30.442Z,1.20
2022-12-26T19:22:58.453Z,1.40
2022-12-26T19:25:27.054Z,1.30
2022-12-26T19:27:54.221Z,1.50
2022-12-26T19:30:22.513Z,1.20
2022-12-26T19:32:50.276Z,1.20
2022-12-26T19:35:18.461Z,1.57
2022-12-26T19:37:45.645Z,1.33
2022-12-26T19:40:19.763Z,1.10
2022-12-26T19:42:50.073Z,1.30
2022-12-26T19:45:17.391Z,0.80
2022-12-26T19:47:44.412Z,0.97
2022-12-26T19:50:12.449Z,1.10
2022-12-26T19:52:41.296Z,1.13
2022-12-26T19:55:11.427Z,1.30
2022-12-26T19:57:38.560Z,1.10
2022-12-26T20:00:07.027Z,1.40
2022-12-26T20:02:34.022Z,1.80
2022-12-26T20:05:01.028Z,1.57
2022-12-26T20:07:27.904Z,1.30
2022-12-26T20:09:55.836Z,0.77
2022-12-26T20:12:22.707Z,1.70
2022-12-26T20:14:49.612Z,1.10
2022-12-26T20:17:16.618Z,1.30
2022-12-26T20:19:44.414Z,1.10
2022-12-26T20:22:11.696Z,1.33
2022-12-26T20:24:38.620Z,1.23
2022-12-26T20:27:05.540Z,2.60
2022-12-26T20:29:32.511Z,1.30
2022-12-26T20:31:59.555Z,0.93
2022-12-26T20:34:26.713Z,1.33
2022-12-26T20:36:53.638Z,1.37
2022-12-26T20:39:21.151Z,1.30
2022-12-26T20:41:48.524Z,1.63
2022-12-26T20:44:17.438Z,0.90
2022-12-26T20:46:45.815Z,1.33
2022-12-26T20:49:13.239Z,1.97
2022-12-26T20:51:43.674Z,1.17
2022-12-26T20:54:12.428Z,1.77
2022-12-26T20:56:40.404Z,2.13
2022-12-26T20:59:08.329Z,1.27
2022-12-26T21:01:37.582Z,2.17
2022-12-26T21:04:04.916Z,1.67
2022-12-26T21:06:35.268Z,1.43
2022-12-26T21:12:03.979Z,1.30
2022-12-26T21:14:56.892Z,1.97
2022-12-26T21:17:41.395Z,1.10
2022-12-26T21:20:26.670Z,1.53
2022-12-26T21:23:26.812Z,1.40
2022-12-26T21:26:15.777Z,2.30
2022-12-26T21:29:11.642Z,1.50
2022-12-26T21:32:11.095Z,1.27
2022-12-26T21:35:04.670Z,2.40
2022-12-26T21:37:58.604Z,1.37
2022-12-26T21:40:32.705Z,1.20
2022-12-26T21:43:21.845Z,1.40
2022-12-26T21:46:50.030Z,1.50
2022-12-26T21:49:57.221Z,1.20
2022-12-26T21:52:49.355Z,1.60
2022-12-26T21:55:55.345Z,1.10
2022-12-26T21:58:55.647Z,1.70
2022-12-26T22:01:43.478Z,2.13
2022-12-26T22:07:56.711Z,1.40
2022-12-26T22:11:22.937Z,2.20
2022-12-26T22:14:06.961Z,2.90
2022-12-26T22:17:29.613Z,1.33
2022-12-26T22:20:35.824Z,1.70
2022-12-26T22:23:33.352Z,1.87
2022-12-26T22:26:31.133Z,1.80
2022-12-26T22:29:09.202Z,1.40
2022-12-26T22:32:09.758Z,1.60
2022-12-26T22:35:13.243Z,1.73
2022-12-26T22:38:37.869Z,1.90
2022-12-26T22:44:34.676Z,1.63
2022-12-26T22:47:37.089Z,1.30
2022-12-26T22:50:23.487Z,1.40
2022-12-26T22:53:21.839Z,1.00
2022-12-26T22:56:39.907Z,3.00
2022-12-26T23:00:06.958Z,1.33
2022-12-26T23:02:56.983Z,1.70
2022-12-26T23:06:01.655Z,1.27
2022-12-26T23:13:04.095Z,1.40
2022-12-26T23:16:35.108Z,1.40
2022-12-26T23:20:14.447Z,1.17
2022-12-26T23:23:11.663Z,1.07
2022-12-26T23:26:36.334Z,0.97
2022-12-26T23:33:31.639Z,2.10
2022-12-26T23:36:51.867Z,1.93
2022-12-26T23:39:59.801Z,2.60
2022-12-26T23:47:23.914Z,1.40
2022-12-26T23:50:22.457Z,1.37
2022-12-26T23:53:01.987Z,1.50
2022-12-26T23:55:54.873Z,1.33
2022-12-26T23:59:51.414Z,1.90
